Time;durP1;ratioP1;P1;durP2;ratioP2;P2;SDS_P1;SDS_P2;PMS_P1;PMS_P2;Temp;Humidity;BMP_temperature;BMP_pressure;BME280_temperature;BME280_humidity;BME280_pressure;Samples;Min_cycle;Max_cycle;Signal;HPM_P1;HPM_P2
2021/09/24 00:00:11;;;;;;;;;;;;;;;18.19;100.00;99093.88;5065414;28;19926;-63
2021/09/24 00:02:36;;;;;;;;;;;;;;;18.10;100.00;99091.84;5082995;28;20377;-63
2021/09/24 00:05:02;;;;;;;;;;;;;;;17.87;100.00;99085.44;5099944;28;20439;-63
2021/09/24 00:07:27;;;;;;;;;;;;;;;17.38;100.00;99078.75;5098315;28;19918;-64
2021/09/24 00:09:52;;;;;;;;;;;;;;;17.41;100.00;99093.34;5099397;28;19923;-62
2021/09/24 00:12:18;;;;;;;;;;;;;;;17.55;100.00;99091.59;5099957;28;20011;-63
2021/09/24 00:14:43;;;;;;;;;;;;;;;17.77;100.00;99091.16;5098000;28;20387;-63
2021/09/24 00:17:09;;;;;;;;;;;;;;;17.73;100.00;99083.63;5098997;28;19928;-63
2021/09/24 00:19:34;;;;;;;;;;;;;;;17.84;100.00;99076.03;5101518;28;19915;-62
2021/09/24 00:21:59;;;;;;;;;;;;;;;18.01;100.00;99076.78;5101492;28;19919;-63
2021/09/24 00:24:25;;;;;;;;;;;;;;;18.07;100.00;99074.63;5100416;28;19922;-63
2021/09/24 00:26:50;;;;;;;;;;;;;;;17.81;100.00;99078.81;5098258;28;19916;-62
2021/09/24 00:29:15;;;;;;;;;;;;;;;18.00;100.00;99069.91;5079581;28;19938;-64
2021/09/24 00:31:41;;;;;;;;;;;;;;;17.90;100.00;99067.00;5097499;28;19923;-62
2021/09/24 00:34:06;;;;;;;;;;;;;;;17.35;100.00;99065.91;5097717;28;19912;-62
2021/09/24 00:36:31;;;;;;;;;;;;;;;17.28;100.00;99067.19;5100252;28;19916;-61
2021/09/24 00:38:57;;;;;;;;;;;;;;;17.45;100.00;99064.44;5097673;28;20003;-63
2021/09/24 00:41:22;;;;;;;;;;;;;;;17.42;100.00;99054.19;5100776;28;19968;-62
2021/09/24 00:43:47;;;;;;;;;;;;;;;17.29;100.00;99054.09;5101619;28;19915;-62
2021/09/24 00:46:13;;;;;;;;;;;;;;;17.59;100.00;99049.78;5079893;28;19920;-64
2021/09/24 00:48:38;;;;;;;;;;;;;;;17.40;100.00;99057.81;5100208;28;19923;-61
2021/09/24 00:51:04;;;;;;;;;;;;;;;17.34;100.00;99056.44;5101423;28;19915;-61
2021/09/24 00:53:30;;;;;;;;;;;;;;;17.24;100.00;99063.94;5102752;28;19966;-63
2021/09/24 00:55:57;;;;;;;;;;;;;;;17.88;100.00;99069.72;5102362;28;19916;-64
2021/09/24 00:58:22;;;;;;;;;;;;;;;17.61;100.00;99055.69;5099797;28;19912;-64
2021/09/24 01:00:48;;;;;;;;;;;;;;;17.96;100.00;99058.81;5077338;28;19929;-64
2021/09/24 01:03:13;;;;;;;;;;;;;;;17.74;100.00;99061.84;5100408;28;20313;-63
2021/09/24 01:05:39;;;;;;;;;;;;;;;17.65;100.00;99065.00;5098300;28;19943;-63
2021/09/24 01:08:04;;;;;;;;;;;;;;;18.08;100.00;99052.00;5101245;28;19965;-61
2021/09/24 01:10:29;;;;;;;;;;;;;;;18.11;100.00;99052.66;5102548;28;19918;-62
2021/09/24 01:12:56;;;;;;;;;;;;;;;17.76;100.00;99058.22;5099900;28;20366;-61
2021/09/24 01:15:21;;;;;;;;;;;;;;;16.97;100.00;99070.72;5099470;28;19927;-63
2021/09/24 01:17:50;;;;;;;;;;;;;;;17.53;100.00;99077.00;5098546;28;19946;-61
2021/09/24 01:20:16;;;;;;;;;;;;;;;17.83;100.00;99063.94;5099596;28;19915;-63
2021/09/24 01:22:42;;;;;;;;;;;;;;;17.93;100.00;99064.22;5081781;28;19916;-64
2021/09/24 01:25:08;;;;;;;;;;;;;;;17.28;100.00;99075.00;5081636;28;19920;-63
2021/09/24 01:27:33;;;;;;;;;;;;;;;17.19;100.00;99072.94;5080343;28;19955;-64
2021/09/24 01:29:59;;;;;;;;;;;;;;;17.33;100.00;99070.34;5100615;28;20365;-64
2021/09/24 01:32:24;;;;;;;;;;;;;;;17.42;100.00;99088.03;5098235;28;19919;-64
2021/09/24 01:34:50;;;;;;;;;;;;;;;17.29;100.00;99080.13;5099926;28;21070;-63
2021/09/24 01:37:15;;;;;;;;;;;;;;;17.17;100.00;99086.03;5099760;28;19959;-61
2021/09/24 01:39:40;;;;;;;;;;;;;;;17.41;100.00;99080.34;5100864;28;19916;-62
2021/09/24 01:42:06;;;;;;;;;;;;;;;17.49;100.00;99078.97;5084886;28;19919;-63
2021/09/24 01:44:31;;;;;;;;;;;;;;;17.68;100.00;99064.84;5100299;28;19916;-62
2021/09/24 01:46:57;;;;;;;;;;;;;;;17.60;100.00;99062.69;5100517;28;19916;-61
2021/09/24 01:49:22;;;;;;;;;;;;;;;17.71;100.00;99069.84;5098894;28;19916;-63
2021/09/24 01:51:47;;;;;;;;;;;;;;;17.58;100.00;99071.50;5097457;28;19915;-63
2021/09/24 01:54:13;;;;;;;;;;;;;;;17.38;100.00;99078.75;5079819;28;20309;-63
2021/09/24 01:56:39;;;;;;;;;;;;;;;17.55;100.00;99064.72;5099059;28;20389;-63
2021/09/24 01:59:04;;;;;;;;;;;;;;;17.38;100.00;99068.34;5098853;28;20350;-63
2021/09/24 02:01:29;;;;;;;;;;;;;;;17.21;100.00;99065.88;5100182;28;20020;-64
2021/09/24 02:03:55;;;;;;;;;;;;;;;17.03;100.00;99079.00;5099874;28;20038;-63
2021/09/24 02:06:20;;;;;;;;;;;;;;;17.31;100.00;99067.00;5098406;28;19924;-64
2021/09/24 02:08:45;;;;;;;;;;;;;;;17.70;100.00;99063.00;5064827;28;19962;-64
2021/09/24 02:11:11;;;;;;;;;;;;;;;17.71;100.00;99065.47;5099199;28;20667;-63
2021/09/24 02:13:37;;;;;;;;;;;;;;;17.92;100.00;99058.16;5099018;28;20018;-64
2021/09/24 02:16:03;;;;;;;;;;;;;;;17.52;100.00;99059.72;5098448;28;19930;-63
2021/09/24 02:18:28;;;;;;;;;;;;;;;17.82;100.00;99056.22;5100149;28;20292;-62
2021/09/24 02:20:53;;;;;;;;;;;;;;;17.48;100.00;99059.03;5098530;28;19971;-64
2021/09/24 02:23:19;;;;;;;;;;;;;;;17.58;100.00;99072.34;5099542;28;19924;-63
2021/09/24 02:25:44;;;;;;;;;;;;;;;18.04;100.00;99066.16;5100062;28;19916;-60
2021/09/24 02:28:10;;;;;;;;;;;;;;;17.87;100.00;99068.03;5100657;28;19912;-63
2021/09/24 02:30:35;;;;;;;;;;;;;;;17.93;100.00;99059.84;5097651;28;20333;-63
2021/09/24 02:33:00;;;;;;;;;;;;;;;17.49;100.00;99065.94;5099529;28;20293;-62
2021/09/24 02:35:26;;;;;;;;;;;;;;;17.61;100.00;99068.72;5101379;28;19913;-63
2021/09/24 02:37:51;;;;;;;;;;;;;;;17.78;100.00;99061.56;5098497;28;20057;-63
2021/09/24 02:40:19;;;;;;;;;;;;;;;17.44;100.00;99065.34;5095442;28;20007;-64
2021/09/24 02:42:44;;;;;;;;;;;;;;;17.96;100.00;99059.66;5097137;28;19965;-64
2021/09/24 02:45:10;;;;;;;;;;;;;;;17.67;100.00;99053.56;5099445;28;19916;-63
2021/09/24 02:47:35;;;;;;;;;;;;;;;17.90;100.00;99060.03;5099569;28;19916;-63
2021/09/24 02:50:00;;;;;;;;;;;;;;;18.16;100.00;99054.97;5098323;28;19927;-64
2021/09/24 02:52:26;;;;;;;;;;;;;;;18.02;100.00;99060.19;5098941;28;19991;-64
2021/09/24 02:54:51;;;;;;;;;;;;;;;17.41;100.00;99062.94;5078638;28;19980;-63
2021/09/24 02:57:16;;;;;;;;;;;;;;;17.64;100.00;99055.53;5098425;28;19920;-64
2021/09/24 02:59:42;;;;;;;;;;;;;;;17.87;100.00;99055.00;5080502;28;20361;-63
2021/09/24 03:02:07;;;;;;;;;;;;;;;17.55;100.00;99052.53;5097512;28;19988;-61
2021/09/24 03:04:32;;;;;;;;;;;;;;;18.02;100.00;99057.59;5097771;28;19920;-64
2021/09/24 03:06:58;;;;;;;;;;;;;;;17.64;100.00;99063.34;5103261;28;19924;-61
2021/09/24 03:09:23;;;;;;;;;;;;;;;17.94;100.00;99061.50;5084341;28;20414;-63
2021/09/24 03:11:49;;;;;;;;;;;;;;;17.83;100.00;99063.94;5100822;28;19920;-62
2021/09/24 03:14:14;;;;;;;;;;;;;;;17.84;100.00;99070.00;5102786;28;19912;-61
2021/09/24 03:16:41;;;;;;;;;;;;;;;17.89;100.00;99073.97;5100871;28;19978;-63
2021/09/24 03:19:07;;;;;;;;;;;;;;;17.54;100.00;99068.28;5102580;28;20270;-62
2021/09/24 03:21:32;;;;;;;;;;;;;;;17.72;100.00;99063.69;5101079;28;19916;-63
2021/09/24 03:23:58;;;;;;;;;;;;;;;17.88;100.00;99066.25;5101848;28;20436;-63
2021/09/24 03:26:23;;;;;;;;;;;;;;;17.70;100.00;99069.03;5099825;28;19923;-63
2021/09/24 03:28:48;;;;;;;;;;;;;;;17.17;100.00;99074.78;5103289;28;19916;-64
2021/09/24 03:31:14;;;;;;;;;;;;;;;17.86;100.00;99068.97;5101606;28;19959;-63
2021/09/24 03:33:40;;;;;;;;;;;;;;;17.74;100.00;99072.25;5079950;28;19924;-62
2021/09/24 03:36:05;;;;;;;;;;;;;;;17.80;100.00;99069.31;5083549;28;19919;-62
2021/09/24 03:38:30;;;;;;;;;;;;;;;17.98;100.00;99069.97;5102731;28;19927;-61
2021/09/24 03:40:56;;;;;;;;;;;;;;;17.55;100.00;99070.75;5102734;28;19922;-64
2021/09/24 03:43:21;;;;;;;;;;;;;;;17.86;100.00;99057.69;5080695;28;19919;-63
2021/09/24 03:45:47;;;;;;;;;;;;;;;17.58;100.00;99064.53;5079311;28;20006;-64
2021/09/24 03:48:12;;;;;;;;;;;;;;;17.61;100.00;99055.69;5099732;28;20045;-64
2021/09/24 03:50:37;;;;;;;;;;;;;;;17.64;100.00;99064.19;5100810;28;20366;-63
2021/09/24 03:53:03;;;;;;;;;;;;;;;18.00;100.00;99065.53;5099652;28;20684;-64
2021/09/24 03:55:28;;;;;;;;;;;;;;;18.30;100.00;99061.94;5081439;28;19920;-64
2021/09/24 03:57:53;;;;;;;;;;;;;;;17.90;100.00;99060.03;5079795;28;19924;-62
2021/09/24 04:00:19;;;;;;;;;;;;;;;17.80;100.00;99061.50;5099924;28;19920;-64
2021/09/24 04:02:44;;;;;;;;;;;;;;;17.78;100.00;99058.97;5080359;28;19920;-64
2021/09/24 04:05:09;;;;;;;;;;;;;;;17.72;100.00;99059.34;5032675;28;1903871;-62
2021/09/24 04:07:35;;;;;;;;;;;;;;;17.82;100.00;99066.66;5100444;28;19920;-63
2021/09/24 04:10:00;;;;;;;;;;;;;;;18.14;100.00;99062.06;5083828;28;20436;-61
2021/09/24 04:12:26;;;;;;;;;;;;;;;18.02;100.00;99060.19;5100531;28;19920;-63
2021/09/24 04:14:51;;;;;;;;;;;;;;;18.04;100.00;99053.13;5081144;28;19923;-64
2021/09/24 04:17:17;;;;;;;;;;;;;;;18.16;100.00;99055.81;5098747;28;19973;-63
2021/09/24 04:19:42;;;;;;;;;;;;;;;17.71;100.00;99059.44;5100429;28;19916;-64
2021/09/24 04:22:07;;;;;;;;;;;;;;;17.71;100.00;99059.44;5100661;28;19923;-64
2021/09/24 04:24:33;;;;;;;;;;;;;;;17.80;100.00;99058.88;5100835;28;19965;-63
2021/09/24 04:26:58;;;;;;;;;;;;;;;17.55;100.00;99068.16;5100681;28;19920;-63
2021/09/24 04:29:23;;;;;;;;;;;;;;;17.80;100.00;99064.09;5100414;28;19916;-64
2021/09/24 04:31:49;;;;;;;;;;;;;;;17.87;100.00;99061.97;5082112;28;20374;-64
2021/09/24 04:34:14;;;;;;;;;;;;;;;17.28;100.00;99062.81;5099654;28;20056;-64
2021/09/24 04:36:39;;;;;;;;;;;;;;;17.37;100.00;99061.44;5099380;28;19973;-64
2021/09/24 04:39:05;;;;;;;;;;;;;;;17.38;100.00;99070.94;5100577;28;20262;-63
2021/09/24 04:41:30;;;;;;;;;;;;;;;17.25;100.00;99073.41;5100207;28;19926;-63
2021/09/24 04:43:56;;;;;;;;;;;;;;;17.68;100.00;99070.88;5099086;28;20625;-62
2021/09/24 04:46:21;;;;;;;;;;;;;;;17.14;100.00;99070.59;5093726;28;19916;-64
2021/09/24 04:48:46;;;;;;;;;;;;;;;17.54;100.00;99069.09;5100750;28;20061;-64
2021/09/24 04:51:12;;;;;;;;;;;;;;;17.25;100.00;99078.63;5100479;28;19916;-63
2021/09/24 04:53:37;;;;;;;;;;;;;;;17.52;100.00;99076.16;5101728;28;19920;-60
2021/09/24 04:56:02;;;;;;;;;;;;;;;17.29;100.00;99063.69;5099491;28;19923;-63
2021/09/24 04:58:28;;;;;;;;;;;;;;;17.18;100.00;99066.91;5076882;28;19919;-63
2021/09/24 05:00:53;;;;;;;;;;;;;;;17.13;100.00;99080.19;5097734;28;19968;-61
2021/09/24 05:03:19;;;;;;;;;;;;;;;17.04;100.00;99080.72;5099697;28;19923;-61
2021/09/24 05:05:44;;;;;;;;;;;;;;;17.65;100.00;99075.44;5099596;28;19926;-61
2021/09/24 05:08:10;;;;;;;;;;;;;;;17.48;100.00;99079.88;5096628;28;19912;-61
2021/09/24 05:10:36;;;;;;;;;;;;;;;17.04;100.00;99070.31;5092195;28;20408;-63
2021/09/24 05:13:01;;;;;;;;;;;;;;;17.18;100.00;99069.50;5095646;28;19912;-63
2021/09/24 05:15:28;;;;;;;;;;;;;;;17.02;100.00;99074.75;5094708;28;19999;-63
2021/09/24 05:17:53;;;;;;;;;;;;;;;17.00;100.00;99074.00;5094924;28;19941;-63
2021/09/24 05:20:19;;;;;;;;;;;;;;;16.79;100.00;99070.00;5097893;28;19924;-60
2021/09/24 05:22:44;;;;;;;;;;;;;;;17.24;100.00;99070.91;5102725;28;19918;-62
2021/09/24 05:25:10;;;;;;;;;;;;;;;17.09;100.00;99070.88;5100772;28;20361;-64
2021/09/24 05:27:35;;;;;;;;;;;;;;;17.04;100.00;99062.50;5082622;28;20431;-63
2021/09/24 05:30:00;;;;;;;;;;;;;;;17.34;100.00;99061.63;5101788;28;19958;-61
2021/09/24 05:32:26;;;;;;;;;;;;;;;17.45;100.00;99059.25;5100758;28;19911;-63
2021/09/24 05:34:51;;;;;;;;;;;;;;;16.98;100.00;99059.41;5098557;28;19922;-63
2021/09/24 05:37:16;;;;;;;;;;;;;;;17.33;100.00;99065.16;5097744;28;19965;-63
2021/09/24 05:39:42;;;;;;;;;;;;;;;16.98;100.00;99055.03;5099055;28;19915;-61
2021/09/24 05:42:08;;;;;;;;;;;;;;;17.14;100.00;99060.19;5100866;28;19919;-62
2021/09/24 05:44:33;;;;;;;;;;;;;;;17.05;100.00;99058.94;5098591;28;19919;-61
2021/09/24 05:46:59;;;;;;;;;;;;;;;16.95;100.00;99065.63;5097959;28;20337;-63
2021/09/24 05:49:29;;;;;;;;;;;;;;;17.46;100.00;99065.28;5098302;28;19920;-64
2021/09/24 05:51:55;;;;;;;;;;;;;;;16.97;100.00;99062.91;5098501;28;20261;-64
2021/09/24 05:54:20;;;;;;;;;;;;;;;17.43;100.00;99057.66;5098599;28;19915;-63
2021/09/24 05:56:46;;;;;;;;;;;;;;;17.17;100.00;99059.16;5101331;28;19946;-61
2021/09/24 05:59:11;;;;;;;;;;;;;;;17.26;100.00;99069.03;5096236;28;19916;-61
2021/09/24 06:01:36;;;;;;;;;;;;;;;16.73;100.00;99066.78;5083256;28;19920;-61
2021/09/24 06:04:02;;;;;;;;;;;;;;;17.42;100.00;99059.41;5095717;28;19926;-63
2021/09/24 06:06:27;;;;;;;;;;;;;;;17.54;100.00;99057.88;5095835;28;19924;-63
2021/09/24 06:08:52;;;;;;;;;;;;;;;17.65;100.00;99054.59;5096457;28;19942;-63
2021/09/24 06:11:18;;;;;;;;;;;;;;;17.19;100.00;99057.31;5096471;28;20369;-61
2021/09/24 06:13:43;;;;;;;;;;;;;;;17.04;100.00;99054.69;5096598;28;19912;-64
2021/09/24 06:16:09;;;;;;;;;;;;;;;16.72;100.00;99069.50;5093929;28;19993;-63
2021/09/24 06:18:34;;;;;;;;;;;;;;;17.15;100.00;99064.44;5092924;28;20423;-63
2021/09/24 06:21:02;;;;;;;;;;;;;;;17.55;100.00;99062.94;5094677;28;20042;-63
2021/09/24 06:23:27;;;;;;;;;;;;;;;17.29;100.00;99053.28;5097716;28;19919;-63
2021/09/24 06:25:53;;;;;;;;;;;;;;;17.33;100.00;99059.94;5097006;28;19922;-63
2021/09/24 06:28:18;;;;;;;;;;;;;;;17.49;100.00;99062.47;5097244;28;20040;-62
2021/09/24 06:30:43;;;;;;;;;;;;;;;17.14;100.00;99055.81;5099077;28;19955;-62
2021/09/24 06:33:09;;;;;;;;;;;;;;;17.08;100.00;99073.56;5080481;28;19919;-64
2021/09/24 06:35:34;;;;;;;;;;;;;;;17.11;100.00;99070.78;5097955;28;19919;-63
2021/09/24 06:37:59;;;;;;;;;;;;;;;17.58;100.00;99068.91;5080995;28;19930;-63
2021/09/24 06:40:25;;;;;;;;;;;;;;;17.68;100.00;99059.63;5102344;28;20437;-61
2021/09/24 06:42:50;;;;;;;;;;;;;;;17.78;100.00;99060.75;5074129;28;20626;-61
2021/09/24 06:45:16;;;;;;;;;;;;;;;17.81;100.00;99052.75;5107014;28;19922;-63
2021/09/24 06:47:41;;;;;;;;;;;;;;;18.16;100.00;99048.00;5103335;28;19927;-63
2021/09/24 06:50:07;;;;;;;;;;;;;;;18.37;100.00;99043.19;5101385;28;19923;-63
2021/09/24 06:52:33;;;;;;;;;;;;;;;18.38;100.00;99038.81;5102229;28;19934;-63
2021/09/24 06:54:59;;;;;;;;;;;;;;;18.45;100.00;99039.25;5098294;28;19959;-64
2021/09/24 06:57:24;;;;;;;;;;;;;;;18.14;100.00;99049.03;5104729;28;19959;-60
2021/09/24 06:59:50;;;;;;;;;;;;;;;17.88;100.00;99046.25;5100894;28;19982;-63
2021/09/24 07:02:15;;;;;;;;;;;;;;;18.31;100.00;99038.34;5102731;28;19919;-63
2021/09/24 07:04:41;;;;;;;;;;;;;;;18.59;100.00;99036.63;5064654;28;19924;-63
2021/09/24 07:07:06;;;;;;;;;;;;;;;18.66;100.00;99040.50;5098301;28;20486;-63
2021/09/24 07:09:32;;;;;;;;;;;;;;;18.51;100.00;99028.44;5096893;28;19913;-63
2021/09/24 07:11:57;;;;;;;;;;;;;;;18.59;100.00;99034.00;5098943;28;19912;-61
2021/09/24 07:14:22;;;;;;;;;;;;;;;18.72;100.00;99036.66;5100547;28;19915;-61
2021/09/24 07:16:48;;;;;;;;;;;;;;;18.65;100.00;99030.16;5100264;28;19920;-64
2021/09/24 07:19:14;;;;;;;;;;;;;;;18.85;100.00;99027.13;5099293;28;19919;-63
2021/09/24 07:21:39;;;;;;;;;;;;;;;18.83;100.00;99028.16;5100368;28;20007;-63
2021/09/24 07:24:04;;;;;;;;;;;;;;;18.79;100.00;99033.59;5100333;28;19919;-63
2021/09/24 07:26:30;;;;;;;;;;;;;;;18.57;100.00;99028.06;5079275;28;19918;-63
2021/09/24 07:28:55;;;;;;;;;;;;;;;18.54;100.00;99036.06;5081626;28;19912;-63
2021/09/24 07:31:21;;;;;;;;;;;;;;;18.52;100.00;99038.78;5099449;28;19916;-63
2021/09/24 07:33:46;;;;;;;;;;;;;;;18.46;100.00;99035.72;5100067;28;19915;-63
2021/09/24 07:36:12;;;;;;;;;;;;;;;18.64;100.00;99038.94;5102182;28;19920;-61
2021/09/24 07:38:37;;;;;;;;;;;;;;;18.44;100.00;99035.00;5100182;28;19922;-63
2021/09/24 07:41:03;;;;;;;;;;;;;;;18.27;100.00;99026.47;5097379;28;19977;-63
2021/09/24 07:43:29;;;;;;;;;;;;;;;18.45;100.00;99039.25;5099489;28;19920;-63
2021/09/24 07:45:56;;;;;;;;;;;;;;;18.43;100.00;99041.97;5099497;28;20003;-63
2021/09/24 07:48:23;;;;;;;;;;;;;;;17.68;100.00;99044.00;5098298;28;20938;-63
2021/09/24 07:50:48;;;;;;;;;;;;;;;18.38;100.00;99052.69;5098931;28;19969;-62
2021/09/24 07:53:23;;;;;;;;;;;;;;;18.49;100.00;99048.56;5100302;28;20324;-53
2021/09/24 07:55:48;;;;;;;;;;;;;;;18.37;100.00;99056.22;5102205;28;19994;-64
2021/09/24 07:58:13;;;;;;;;;;;;;;;18.93;100.00;99042.25;5101422;28;20006;-63
2021/09/24 08:00:39;;;;;;;;;;;;;;;18.31;100.00;99056.59;5098415;28;20274;-63
2021/09/24 08:03:05;;;;;;;;;;;;;;;18.60;100.00;99048.72;5099193;28;19923;-63
2021/09/24 08:05:30;;;;;;;;;;;;;;;18.81;100.00;99049.94;5100365;28;20608;-63
2021/09/24 08:07:56;;;;;;;;;;;;;;;18.98;100.00;99058.47;5100912;28;20455;-61
2021/09/24 08:10:21;;;;;;;;;;;;;;;18.93;100.00;99050.09;5099414;28;19916;-63
2021/09/24 08:12:47;;;;;;;;;;;;;;;18.90;100.00;99051.13;5099509;28;19912;-63
2021/09/24 08:15:12;;;;;;;;;;;;;;;18.65;100.00;99062.28;5078706;28;20455;-63
2021/09/24 08:17:39;;;;;;;;;;;;;;;18.66;100.00;99063.97;5098746;28;20689;-62
2021/09/24 08:20:05;;;;;;;;;;;;;;;18.64;100.00;99063.25;5079697;28;20411;-63
2021/09/24 08:22:34;;;;;;;;;;;;;;;18.60;100.00;99061.75;5097031;28;19927;-62
2021/09/24 08:25:00;;;;;;;;;;;;;;;18.32;100.00;99071.34;5098945;28;19920;-64
2021/09/24 08:27:25;;;;;;;;;;;;;;;18.31;100.00;99081.84;5099413;28;20340;-63
2021/09/24 08:29:51;;;;;;;;;;;;;;;18.90;100.00;99071.19;5097940;28;19926;-63
2021/09/24 08:32:16;;;;;;;;;;;;;;;18.82;100.00;99074.28;5096901;28;19934;-64
2021/09/24 08:34:41;;;;;;;;;;;;;;;18.65;100.00;99074.50;5080950;28;19955;-62
2021/09/24 08:37:07;;;;;;;;;;;;;;;18.45;100.00;99078.38;5096316;28;20433;-62
2021/09/24 08:39:32;;;;;;;;;;;;;;;18.74;100.00;99082.56;5098479;28;19972;-61
2021/09/24 08:41:57;;;;;;;;;;;;;;;19.06;100.00;99077.06;5102035;28;20292;-61
2021/09/24 08:44:23;;;;;;;;;;;;;;;18.92;100.00;99079.75;5080878;28;19931;-63
2021/09/24 08:46:49;;;;;;;;;;;;;;;19.51;100.00;99081.94;5078491;28;19938;-62
2021/09/24 08:49:14;;;;;;;;;;;;;;;19.21;100.00;99073.44;5098340;28;20274;-63
2021/09/24 08:51:40;;;;;;;;;;;;;;;18.76;100.00;99075.47;5078602;28;19969;-62
2021/09/24 08:54:05;;;;;;;;;;;;;;;18.35;100.00;99097.19;5078105;28;19916;-63
2021/09/24 08:56:31;;;;;;;;;;;;;;;19.02;100.00;99086.03;5097951;28;19915;-63
2021/09/24 08:58:56;;;;;;;;;;;;;;;18.28;100.00;99097.69;5099928;28;20003;-63
2021/09/24 09:01:21;;;;;;;;;;;;;;;19.16;100.00;99093.81;5097578;28;20317;-62
2021/09/24 09:03:47;;;;;;;;;;;;;;;18.89;100.00;99082.56;5064139;28;19965;-61
2021/09/24 09:06:14;;;;;;;;;;;;;;;18.66;100.00;99084.84;5078480;28;20285;-63
2021/09/24 09:08:39;;;;;;;;;;;;;;;18.77;100.00;99087.63;5100073;28;19923;-63
2021/09/24 09:11:06;;;;;;;;;;;;;;;18.86;100.00;99083.59;5097175;28;19915;-63
2021/09/24 09:13:32;;;;;;;;;;;;;;;18.35;100.00;99091.97;5096372;28;19916;-63
2021/09/24 09:16:01;;;;;;;;;;;;;;;19.01;100.00;99089.59;5075834;28;20364;-61
2021/09/24 09:18:27;;;;;;;;;;;;;;;19.17;100.00;99089.41;5096091;28;19919;-63
2021/09/24 09:20:53;;;;;;;;;;;;;;;18.90;100.00;99090.28;5095058;28;19942;-63
2021/09/24 09:23:19;;;;;;;;;;;;;;;19.18;100.00;99088.47;5099800;28;19912;-63
2021/09/24 09:25:45;;;;;;;;;;;;;;;19.29;100.00;99085.97;5080745;28;19911;-63
2021/09/24 09:28:14;;;;;;;;;;;;;;;19.58;100.00;99089.25;5099151;28;20582;-62
2021/09/24 09:30:40;;;;;;;;;;;;;;;19.51;100.00;99087.16;5098550;28;20346;-62
2021/09/24 09:33:08;;;;;;;;;;;;;;;19.25;100.00;99086.28;5096260;28;19920;-63
2021/09/24 09:35:44;;;;;;;;;;;;;;;19.40;100.00;99086.09;5096365;28;20432;-63
2021/09/24 09:38:18;;;;;;;;;;;;;;;19.57;100.00;99081.53;5095939;28;20026;-63
2021/09/24 09:40:45;;;;;;;;;;;;;;;19.55;100.00;99093.88;5095936;28;19919;-64
2021/09/24 09:43:10;;;;;;;;;;;;;;;19.40;100.00;99095.72;5077376;28;19951;-63
2021/09/24 09:45:37;;;;;;;;;;;;;;;19.39;100.00;99094.88;5080290;28;19954;-63
2021/09/24 09:48:02;;;;;;;;;;;;;;;19.71;100.00;99093.69;5079783;28;19916;-63
2021/09/24 09:50:27;;;;;;;;;;;;;;;19.51;100.00;99093.22;5099211;28;19986;-63
2021/09/24 09:52:54;;;;;;;;;;;;;;;19.32;100.00;99100.63;5096923;28;19920;-60
2021/09/24 09:55:21;;;;;;;;;;;;;;;19.69;100.00;99095.56;5102945;28;20345;-61
2021/09/24 09:57:50;;;;;;;;;;;;;;;20.02;100.00;99088.00;5097183;28;19924;-61
2021/09/24 10:00:16;;;;;;;;;;;;;;;20.61;100.00;99086.53;5094630;28;19923;-63
2021/09/24 10:02:41;;;;;;;;;;;;;;;20.19;100.00;99083.38;5062069;28;19915;-63
2021/09/24 10:05:06;;;;;;;;;;;;;;;19.30;100.00;99090.28;5098114;28;19924;-63
2021/09/24 10:07:35;;;;;;;;;;;;;;;19.72;100.00;99087.50;5076093;28;20285;-63
2021/09/24 10:10:21;;;;;;;;;;;;;;;20.17;100.00;99082.66;5093019;28;19919;-64
2021/09/24 10:12:47;;;;;;;;;;;;;;;20.72;100.00;99076.13;5094916;28;19916;-64
2021/09/24 10:15:14;;;;;;;;;;;;;;;20.25;100.00;99075.09;5100682;28;19918;-61
2021/09/24 10:17:39;;;;;;;;;;;;;;;20.04;100.00;99077.44;5103212;28;19924;-63
2021/09/24 10:20:07;;;;;;;;;;;;;;;19.68;100.00;99083.41;5100948;28;19923;-64
2021/09/24 10:22:32;;;;;;;;;;;;;;;19.32;100.00;99087.56;5101357;28;19912;-63
2021/09/24 10:24:58;;;;;;;;;;;;;;;19.22;100.00;99096.00;5083938;28;19915;-64
2021/09/24 10:27:23;;;;;;;;;;;;;;;19.49;100.00;99083.81;5100410;28;19915;-63
2021/09/24 10:29:48;;;;;;;;;;;;;;;20.01;100.00;99085.50;5102453;28;20020;-61
2021/09/24 10:32:23;;;;;;;;;;;;;;;19.09;100.00;99082.09;5101456;28;19915;-63
2021/09/24 10:34:53;;;;;;;;;;;;;;;19.73;100.00;99081.34;5101557;28;19939;-62
2021/09/24 10:37:19;;;;;;;;;;;;;;;19.39;100.00;99079.22;5099073;28;19920;-61
2021/09/24 10:39:47;;;;;;;;;;;;;;;19.23;100.00;99089.84;5083259;28;20319;-63
2021/09/24 10:42:31;;;;;;;;;;;;;;;20.09;100.00;99082.34;5098949;28;19977;-63
2021/09/24 10:44:56;;;;;;;;;;;;;;;18.59;100.00;99088.78;5101340;28;19922;-63
2021/09/24 10:47:40;;;;;;;;;;;;;;;19.25;100.00;99091.50;5100532;28;19911;-63
2021/09/24 10:50:25;;;;;;;;;;;;;;;19.40;100.00;99091.31;5081664;28;20292;-62
2021/09/24 10:53:06;;;;;;;;;;;;;;;19.47;100.00;99086.53;5100129;28;20319;-63
2021/09/24 10:55:31;;;;;;;;;;;;;;;19.06;100.00;99089.28;5083168;28;19920;-63
2021/09/24 10:58:00;;;;;;;;;;;;;;;18.99;100.00;99087.06;5097394;28;20265;-63
2021/09/24 11:00:26;;;;;;;;;;;;;;;19.28;100.00;99086.09;5095165;28;19926;-61
2021/09/24 11:03:05;;;;;;;;;;;;;;;19.64;100.00;99074.94;5099948;28;19916;-61
2021/09/24 11:05:49;;;;;;;;;;;;;;;19.30;100.00;99085.06;5080176;28;19928;-61
2021/09/24 11:08:33;;;;;;;;;;;;;;;18.98;100.00;99080.19;5099069;28;19961;-63
2021/09/24 11:11:10;;;;;;;;;;;;;;;19.43;100.00;99075.47;5100624;28;19915;-63
2021/09/24 11:13:41;;;;;;;;;;;;;;;20.46;100.00;99073.59;5101466;28;20377;-63
2021/09/24 11:16:08;;;;;;;;;;;;;;;20.18;100.00;99064.22;5099735;28;20380;-63
2021/09/24 11:18:54;;;;;;;;;;;;;;;20.58;100.00;99057.97;5100227;28;19919;-63
2021/09/24 11:21:45;;;;;;;;;;;;;;;21.36;100.00;99048.72;5100543;28;20376;-63
2021/09/24 11:24:26;;;;;;;;;;;;;;;20.42;100.00;99059.03;5100955;28;19919;-63
2021/09/24 11:26:58;;;;;;;;;;;;;;;19.52;100.00;99058.31;5100068;28;19922;-63
2021/09/24 11:29:27;;;;;;;;;;;;;;;20.49;100.00;99051.59;5099531;28;19912;-63
2021/09/24 11:31:52;;;;;;;;;;;;;;;20.97;100.00;99035.06;5099185;28;19912;-63
2021/09/24 11:34:50;;;;;;;;;;;;;;;20.28;100.00;99048.75;5099367;28;19935;-63
2021/09/24 11:37:21;;;;;;;;;;;;;;;21.53;100.00;99040.47;5055157;28;19922;-63
2021/09/24 11:39:47;;;;;;;;;;;;;;;21.19;100.00;99032.50;5102150;28;20310;-63
2021/09/24 11:42:13;;;;;;;;;;;;;;;21.45;100.00;99032.34;5081840;28;19922;-62
2021/09/24 11:44:48;;;;;;;;;;;;;;;21.55;100.00;99033.28;5100237;28;19922;-63
2021/09/24 11:47:18;;;;;;;;;;;;;;;21.61;100.00;99027.56;5100032;28;19916;-63
2021/09/24 11:49:56;;;;;;;;;;;;;;;20.80;100.00;99031.91;5097496;28;19919;-63
2021/09/24 11:52:34;;;;;;;;;;;;;;;21.78;100.00;99023.66;5100110;28;20373;-64
2021/09/24 11:55:31;;;;;;;;;;;;;;;21.76;100.00;99030.81;5100596;28;19920;-64
2021/09/24 11:58:05;;;;;;;;;;;;;;;21.43;100.00;99034.22;5035229;28;19920;-64
2021/09/24 12:00:37;;;;;;;;;;;;;;;20.77;100.00;99036.53;5082702;28;19920;-64
2021/09/24 12:03:06;;;;;;;;;;;;;;;21.44;100.00;99030.66;5101966;28;20007;-64
2021/09/24 12:05:31;;;;;;;;;;;;;;;20.96;100.00;99028.13;5080437;28;19920;-64
2021/09/24 12:07:57;;;;;;;;;;;;;;;21.59;100.00;99034.72;5079376;28;20301;-64
2021/09/24 12:10:29;;;;;;;;;;;;;;;21.28;100.00;99025.75;5080669;28;19916;-64
2021/09/24 12:13:07;;;;;;;;;;;;;;;20.87;100.00;99029.69;5079608;28;20983;-64
2021/09/24 12:15:52;;;;;;;;;;;;;;;21.15;100.00;99025.81;5079052;28;19960;-64
2021/09/24 12:18:17;;;;;;;;;;;;;;;21.11;100.00;99024.38;5079610;28;19919;-63
2021/09/24 12:20:46;;;;;;;;;;;;;;;19.83;100.00;99035.34;5077691;28;19957;-63
2021/09/24 12:23:12;;;;;;;;;;;;;;;20.03;100.00;99028.72;5078926;28;19920;-64
2021/09/24 12:25:37;;;;;;;;;;;;;;;20.33;100.00;99030.94;5079609;28;19958;-63
2021/09/24 12:28:12;;;;;;;;;;;;;;;20.71;100.00;99022.13;5078191;28;19912;-64
2021/09/24 12:30:44;;;;;;;;;;;;;;;21.66;100.00;99016.75;5079530;28;20003;-63
2021/09/24 12:33:12;;;;;;;;;;;;;;;20.76;100.00;99025.22;5077972;28;19950;-61